createdAt,value
2022-09-23T00:01:14.811Z,10.81
2022-09-23T00:03:47.471Z,11.74
2022-09-23T00:06:20.083Z,11.58
2022-09-23T00:08:49.746Z,11.29
2022-09-23T00:11:23.567Z,11.35
2022-09-23T00:13:55.428Z,11.37
2022-09-23T00:16:29.825Z,10.65
2022-09-23T00:18:57.156Z,10.68
2022-09-23T00:21:25.280Z,10.67
2022-09-23T00:23:52.448Z,11.59
2022-09-23T00:26:22.636Z,11.32
2022-09-23T00:28:50.448Z,11.62
2022-09-23T00:31:22.150Z,10.89
2022-09-23T00:33:58.180Z,10.72
2022-09-23T00:36:27.450Z,9.90
2022-09-23T00:38:55.324Z,9.93
2022-09-23T00:41:23.453Z,9.79
2022-09-23T00:44:00.249Z,9.87
2022-09-23T00:46:40.856Z,9.73
2022-09-23T00:49:29.465Z,10.27
2022-09-23T00:52:06.484Z,9.65
2022-09-23T00:54:34.221Z,9.79
2022-09-23T00:57:03.874Z,9.89
2022-09-23T00:59:32.200Z,10.20
2022-09-23T01:02:02.253Z,9.98
2022-09-23T01:04:30.450Z,10.08
2022-09-23T01:06:57.516Z,10.21
2022-09-23T01:09:25.359Z,10.11
2022-09-23T01:12:19.682Z,10.15
2022-09-23T01:15:09.102Z,10.69
2022-09-23T01:17:56.906Z,10.32
2022-09-23T01:20:55.241Z,10.91
2022-09-23T01:24:15.453Z,10.73
2022-09-23T01:27:19.488Z,10.10
2022-09-23T01:30:16.598Z,9.83
2022-09-23T01:32:56.661Z,9.62
2022-09-23T01:36:04.521Z,10.49
2022-09-23T01:38:52.384Z,10.62
2022-09-23T01:41:28.516Z,10.11
2022-09-23T01:44:19.025Z,9.26
2022-09-23T01:47:10.884Z,10.36
2022-09-23T01:50:24.826Z,9.99
2022-09-23T01:52:56.126Z,10.46
2022-09-23T01:55:30.771Z,9.74
2022-09-23T01:58:06.822Z,9.48
2022-09-23T02:00:41.454Z,9.36
2022-09-23T02:03:17.273Z,10.27
2022-09-23T02:06:28.002Z,10.64
2022-09-23T02:09:54.128Z,10.49
2022-09-23T02:12:28.479Z,10.02
2022-09-23T02:15:23.561Z,9.83
2022-09-23T02:18:01.888Z,9.67
2022-09-23T02:20:36.818Z,9.32
2022-09-23T02:23:08.674Z,9.83
2022-09-23T02:25:57.039Z,9.77
2022-09-23T02:28:44.495Z,10.03
2022-09-23T02:31:57.977Z,9.51
2022-09-23T02:34:50.044Z,9.41
2022-09-23T02:37:36.379Z,9.59
2022-09-23T02:40:42.587Z,9.24
2022-09-23T02:43:22.438Z,9.47
2022-09-23T02:45:50.194Z,9.84
2022-09-23T02:48:26.342Z,9.79
2022-09-23T02:50:54.387Z,9.33
2022-09-23T02:53:24.524Z,9.08
2022-09-23T02:55:51.594Z,9.37
2022-09-23T02:58:18.740Z,9.11
2022-09-23T03:01:07.038Z,9.35
2022-09-23T03:03:58.362Z,8.89
2022-09-23T03:06:51.183Z,9.04
2022-09-23T03:09:36.193Z,9.35
2022-09-23T03:12:34.319Z,9.71
2022-09-23T03:15:31.235Z,9.79
2022-09-23T03:18:35.124Z,9.60
2022-09-23T03:21:06.315Z,9.38
2022-09-23T03:23:40.677Z,9.57
2022-09-23T03:26:14.665Z,10.09
2022-09-23T03:28:45.188Z,10.45
2022-09-23T03:31:14.376Z,10.46
2022-09-23T03:33:48.188Z,10.28
2022-09-23T03:36:40.816Z,9.66
2022-09-23T03:39:13.889Z,9.52
2022-09-23T03:41:50.799Z,9.26
2022-09-23T03:44:19.648Z,9.51
2022-09-23T03:46:49.971Z,9.05
2022-09-23T03:49:24.262Z,9.31
2022-09-23T03:51:51.331Z,9.74
2022-09-23T03:54:20.349Z,9.97
2022-09-23T03:56:48.043Z,9.91
2022-09-23T03:59:16.461Z,9.84
2022-09-23T04:01:44.029Z,10.05
2022-09-23T04:04:11.006Z,9.93
2022-09-23T04:06:38.038Z,9.80
2022-09-23T04:09:04.935Z,9.83
2022-09-23T04:11:32.463Z,10.02
2022-09-23T04:13:59.688Z,10.25
2022-09-23T04:16:27.246Z,9.71
2022-09-23T04:18:54.740Z,8.92
2022-09-23T04:21:22.211Z,8.69
2022-09-23T04:23:49.104Z,8.89
2022-09-23T04:26:16.664Z,8.54
2022-09-23T04:28:43.642Z,8.74
2022-09-23T04:31:11.124Z,9.27
2022-09-23T04:33:38.063Z,9.07
2022-09-23T04:36:05.523Z,9.19
2022-09-23T04:38:32.470Z,9.26
2022-09-23T04:40:59.607Z,9.21
2022-09-23T04:43:26.525Z,9.10
2022-09-23T04:46:02.278Z,8.99
2022-09-23T04:48:29.612Z,9.18
2022-09-23T04:51:10.717Z,9.19
2022-09-23T04:53:39.836Z,9.52
2022-09-23T04:56:19.650Z,8.70
2022-09-23T04:58:47.252Z,8.91
2022-09-23T05:01:27.485Z,8.84
2022-09-23T05:03:58.608Z,8.71
2022-09-23T05:06:25.719Z,9.09
2022-09-23T05:08:57.752Z,9.07
2022-09-23T05:11:25.987Z,8.97
2022-09-23T05:13:54.595Z,9.16
2022-09-23T05:16:23.740Z,8.98
2022-09-23T05:18:52.457Z,9.35
2022-09-23T05:21:23.474Z,9.98
2022-09-23T05:23:55.263Z,10.35
2022-09-23T05:26:27.734Z,9.06
2022-09-23T05:28:55.991Z,9.78
2022-09-23T05:31:26.912Z,10.08
2022-09-23T05:34:00.928Z,9.59
2022-09-23T05:36:34.289Z,9.81
2022-09-23T05:39:05.696Z,9.36
2022-09-23T05:41:33.799Z,10.26
2022-09-23T05:44:01.292Z,9.67
2022-09-23T05:46:30.817Z,9.46
2022-09-23T05:49:02.880Z,9.75
2022-09-23T05:51:31.650Z,10.40
2022-09-23T05:53:59.996Z,9.89
2022-09-23T05:56:28.610Z,10.35
2022-09-23T05:58:58.477Z,10.72
2022-09-23T06:01:29.219Z,11.07
2022-09-23T06:03:58.482Z,12.26
2022-09-23T06:06:39.527Z,11.46
2022-09-23T06:09:09.999Z,11.81
2022-09-23T06:11:37.866Z,11.72
2022-09-23T06:14:05.555Z,11.96
2022-09-23T06:19:20.259Z,12.12
2022-09-23T06:21:49.037Z,11.95
2022-09-23T06:24:19.906Z,11.64
2022-09-23T06:26:49.416Z,11.61
2022-09-23T06:29:16.393Z,12.01
2022-09-23T06:31:43.945Z,11.88
2022-09-23T06:34:14.380Z,11.83
2022-09-23T06:36:46.371Z,12.03
2022-09-23T06:39:16.899Z,11.99
2022-09-23T06:41:46.849Z,12.09
2022-09-23T06:44:14.966Z,12.37
2022-09-23T06:46:42.464Z,12.32
2022-09-23T06:49:09.623Z,12.43
2022-09-23T06:51:36.668Z,12.66
2022-09-23T06:54:04.100Z,12.03
2022-09-23T06:56:36.118Z,12.84
2022-09-23T06:59:05.347Z,12.89
2022-09-23T07:01:33.403Z,12.74
2022-09-23T07:04:01.701Z,12.49
2022-09-23T07:06:29.055Z,12.92
2022-09-23T07:08:55.951Z,13.29
2022-09-23T07:11:23.042Z,13.29
2022-09-23T07:13:50.144Z,13.25
2022-09-23T07:16:17.113Z,13.25
2022-09-23T07:18:45.032Z,13.50
2022-09-23T07:21:15.875Z,13.09
2022-09-23T07:23:50.007Z,13.37
2022-09-23T07:26:19.135Z,13.60
2022-09-23T07:28:46.892Z,13.93
2022-09-23T07:31:26.129Z,13.66
2022-09-23T07:33:57.948Z,13.80
2022-09-23T07:36:27.925Z,13.90
2022-09-23T07:39:00.678Z,14.39
2022-09-23T07:41:28.962Z,13.94
2022-09-23T07:43:58.849Z,14.05
2022-09-23T07:46:30.044Z,14.28
2022-09-23T07:48:57.739Z,14.79
2022-09-23T07:51:36.078Z,14.32
2022-09-23T07:54:07.852Z,14.22
2022-09-23T07:56:36.016Z,14.67
2022-09-23T07:59:04.080Z,14.40
2022-09-23T08:01:34.773Z,14.95
2022-09-23T08:04:11.244Z,14.75
2022-09-23T08:06:57.638Z,14.94
2022-09-23T08:09:31.956Z,15.27
2022-09-23T08:11:59.123Z,15.75
2022-09-23T08:14:26.181Z,15.63
2022-09-23T08:16:54.213Z,16.19
2022-09-23T08:19:21.127Z,16.14
2022-09-23T08:21:49.912Z,16.26
2022-09-23T08:24:20.815Z,16.16
2022-09-23T08:26:49.174Z,16.28
2022-09-23T08:29:19.288Z,16.29
2022-09-23T08:31:46.575Z,16.72
2022-09-23T08:34:13.947Z,16.43
2022-09-23T08:36:40.826Z,16.48
2022-09-23T08:39:08.848Z,16.97
2022-09-23T08:42:02.078Z,17.26
2022-09-23T08:44:57.028Z,17.54
2022-09-23T08:47:35.486Z,18.02
2022-09-23T08:50:25.007Z,17.48
2022-09-23T08:53:23.038Z,17.96
2022-09-23T08:55:54.066Z,17.93
2022-09-23T08:58:39.494Z,18.48
2022-09-23T09:01:34.703Z,18.04
2022-09-23T09:04:14.502Z,18.86
2022-09-23T09:07:34.606Z,18.59
2022-09-23T09:10:25.484Z,18.96
2022-09-23T09:13:07.616Z,18.94
2022-09-23T09:15:46.663Z,19.00
2022-09-23T09:18:19.956Z,19.53
2022-09-23T09:20:57.226Z,19.50
2022-09-23T09:23:56.641Z,19.65
2022-09-23T09:26:34.528Z,19.48
2022-09-23T09:29:34.085Z,19.71
2022-09-23T09:32:38.414Z,19.78
2022-09-23T09:35:33.269Z,20.13
2022-09-23T09:38:01.776Z,20.38
2022-09-23T09:40:29.106Z,20.62
2022-09-23T09:42:56.041Z,20.66
2022-09-23T09:46:02.549Z,20.36
2022-09-23T09:48:50.312Z,20.74
2022-09-23T09:51:27.988Z,20.51
2022-09-23T09:54:15.027Z,21.17
2022-09-23T09:56:44.801Z,21.50
2022-09-23T09:59:23.480Z,21.40
2022-09-23T10:02:10.633Z,21.98
2022-09-23T10:04:37.785Z,22.40
2022-09-23T10:07:16.104Z,22.26
2022-09-23T10:09:51.142Z,22.03
2022-09-23T10:12:26.122Z,22.31
2022-09-23T10:14:57.517Z,22.78
2022-09-23T10:17:36.398Z,22.99
2022-09-23T10:20:09.090Z,23.26
2022-09-23T10:22:40.515Z,23.13
2022-09-23T10:25:16.834Z,21.84
2022-09-23T10:27:45.881Z,22.18
2022-09-23T10:30:24.486Z,22.16
2022-09-23T10:32:57.557Z,22.06
2022-09-23T10:35:26.548Z,22.18
2022-09-23T10:37:55.937Z,22.08
2022-09-23T10:44:37.285Z,22.23
2022-09-23T10:47:35.976Z,23.12
2022-09-23T10:50:11.613Z,22.50
2022-09-23T10:52:46.701Z,23.37
2022-09-23T10:55:57.682Z,23.96
2022-09-23T10:58:54.483Z,23.70
2022-09-23T11:01:43.874Z,22.75
2022-09-23T11:04:32.631Z,23.12
2022-09-23T11:07:39.373Z,23.65
2022-09-23T11:10:44.833Z,23.18
2022-09-23T11:13:36.070Z,23.44
2022-09-23T11:16:18.352Z,23.52
2022-09-23T11:19:18.596Z,23.80
2022-09-23T11:22:01.806Z,23.26
2022-09-23T11:25:17.787Z,23.50
2022-09-23T11:28:21.045Z,24.00
2022-09-23T11:31:05.321Z,23.84
2022-09-23T11:33:55.890Z,24.21
2022-09-23T11:36:32.653Z,23.61
2022-09-23T11:39:10.076Z,23.39
2022-09-23T11:41:39.774Z,23.54
2022-09-23T11:44:39.720Z,23.96
2022-09-23T11:47:16.455Z,23.71
2022-09-23T11:50:32.619Z,23.69
2022-09-23T11:53:48.456Z,23.93
2022-09-23T11:56:35.561Z,24.49
2022-09-23T11:59:42.138Z,24.19
2022-09-23T12:02:28.207Z,24.34
2022-09-23T12:05:17.343Z,23.79
2022-09-23T12:08:20.243Z,24.08
2022-09-23T12:11:18.752Z,23.99
2022-09-23T12:14:23.903Z,23.98
2022-09-23T12:17:16.695Z,24.60
2022-09-23T12:20:42.412Z,24.64
2022-09-23T12:23:27.420Z,24.79
2022-09-23T12:26:01.919Z,25.03
2022-09-23T12:28:43.473Z,25.30
2022-09-23T12:31:19.225Z,25.10
2022-09-23T12:34:30.318Z,24.79
2022-09-23T12:37:04.768Z,24.69
2022-09-23T12:39:35.494Z,25.53
2022-09-23T12:42:16.277Z,24.56
2022-09-23T12:44:47.202Z,24.62
2022-09-23T12:47:28.322Z,25.54
2022-09-23T12:50:01.148Z,25.53
2022-09-23T12:52:33.531Z,24.71
2022-09-23T12:55:35.406Z,24.93
2022-09-23T12:58:02.479Z,24.58
2022-09-23T13:00:34.087Z,24.78
2022-09-23T13:03:21.274Z,24.32
2022-09-23T13:06:19.454Z,24.24
2022-09-23T13:08:47.555Z,24.95
2022-09-23T13:11:17.611Z,24.22
2022-09-23T13:13:46.156Z,23.89
2022-09-23T13:16:45.780Z,24.44
2022-09-23T13:19:39.332Z,24.25
2022-09-23T13:22:11.183Z,24.32
2022-09-23T13:24:53.419Z,24.55
2022-09-23T13:27:22.320Z,24.81
2022-09-23T13:30:07.722Z,25.14
2022-09-23T13:32:42.391Z,25.36
2022-09-23T13:35:32.835Z,25.43
2022-09-23T13:38:09.133Z,25.18
2022-09-23T13:40:37.013Z,24.40
2022-09-23T13:43:09.363Z,24.03
2022-09-23T13:45:41.367Z,24.97
2022-09-23T13:48:15.575Z,24.74
2022-09-23T13:50:50.697Z,24.64
2022-09-23T13:53:30.248Z,24.54
2022-09-23T13:56:16.890Z,24.61
2022-09-23T13:58:43.968Z,24.88
2022-09-23T14:01:29.888Z,24.91
2022-09-23T14:03:57.120Z,24.73
2022-09-23T14:06:26.686Z,24.67
2022-09-23T14:08:54.074Z,25.10
2022-09-23T14:11:29.399Z,24.59
2022-09-23T14:13:57.023Z,24.57
2022-09-23T14:16:28.098Z,25.00
2022-09-23T14:19:00.349Z,24.95
2022-09-23T14:21:39.988Z,24.82
2022-09-23T14:24:20.627Z,24.68
2022-09-23T14:27:01.790Z,24.33
2022-09-23T14:29:38.192Z,24.52
2022-09-23T14:32:23.758Z,24.38
2022-09-23T14:35:08.198Z,24.37
2022-09-23T14:37:56.496Z,24.40
2022-09-23T14:40:49.805Z,24.02
2022-09-23T14:43:26.767Z,24.20
2022-09-23T14:45:58.739Z,23.76
2022-09-23T14:48:33.451Z,24.02
2022-09-23T14:51:14.486Z,23.84
2022-09-23T14:53:49.139Z,24.04
2022-09-23T14:56:20.303Z,23.98
2022-09-23T14:59:00.771Z,24.00
2022-09-23T15:01:30.995Z,24.08
2022-09-23T15:04:01.248Z,24.14
2022-09-23T15:06:28.436Z,24.08
2022-09-23T15:08:56.168Z,24.13
2022-09-23T15:11:23.255Z,24.44
2022-09-23T15:13:53.103Z,24.51
2022-09-23T15:16:28.021Z,24.35
2022-09-23T15:19:00.825Z,24.30
2022-09-23T15:21:44.706Z,24.34
2022-09-23T15:24:38.381Z,24.05
2022-09-23T15:27:27.227Z,23.89
2022-09-23T15:29:54.714Z,24.04
2022-09-23T15:32:22.057Z,23.85
2022-09-23T15:34:50.557Z,24.05
2022-09-23T15:37:17.776Z,24.17
2022-09-23T15:39:44.835Z,24.04
2022-09-23T15:42:12.046Z,23.85
2022-09-23T15:44:39.061Z,23.87
2022-09-23T15:47:06.623Z,23.91
2022-09-23T15:49:41.800Z,24.16
2022-09-23T15:52:10.724Z,24.33
2022-09-23T15:54:37.899Z,24.10
2022-09-23T15:57:05.578Z,24.03
2022-09-23T15:59:33.131Z,24.10
2022-09-23T16:02:06.691Z,23.91
2022-09-23T16:04:34.130Z,23.80
2022-09-23T16:07:01.633Z,23.98
2022-09-23T16:09:31.517Z,23.95
2022-09-23T16:11:58.450Z,23.78
2022-09-23T16:14:25.313Z,23.37
2022-09-23T16:16:52.414Z,23.87
2022-09-23T16:19:19.352Z,23.22
2022-09-23T16:21:46.402Z,23.31
2022-09-23T16:24:19.158Z,23.54
2022-09-23T16:26:48.113Z,23.38
2022-09-23T16:29:15.678Z,22.67
2022-09-23T16:31:43.026Z,22.60
2022-09-23T16:34:10.069Z,22.38
2022-09-23T16:36:43.277Z,22.67
2022-09-23T16:39:13.064Z,22.68
2022-09-23T16:41:41.051Z,22.36
2022-09-23T16:44:10.755Z,22.14
2022-09-23T16:46:37.949Z,22.22
2022-09-23T16:49:05.037Z,22.11
2022-09-23T16:51:38.916Z,22.10
2022-09-23T16:54:12.189Z,21.96
2022-09-23T16:56:45.186Z,21.91
2022-09-23T16:59:15.296Z,22.08
2022-09-23T17:02:02.097Z,22.11
2022-09-23T17:04:29.606Z,21.82
2022-09-23T17:06:56.701Z,21.90
2022-09-23T17:09:30.332Z,21.75
2022-09-23T17:12:20.093Z,21.69
2022-09-23T17:14:47.115Z,21.38
2022-09-23T17:17:13.988Z,21.51
2022-09-23T17:19:41.435Z,21.69
2022-09-23T17:22:09.204Z,21.43
2022-09-23T17:24:36.154Z,21.58
2022-09-23T17:27:03.380Z,21.49
2022-09-23T17:29:30.521Z,21.38
2022-09-23T17:31:58.048Z,21.61
2022-09-23T17:34:25.530Z,21.45
2022-09-23T17:36:52.359Z,21.64
2022-09-23T17:39:19.291Z,21.54
2022-09-23T17:41:46.393Z,21.26
2022-09-23T17:44:14.279Z,21.12
2022-09-23T17:46:41.197Z,21.17
2022-09-23T17:49:09.205Z,21.09
2022-09-23T17:51:36.744Z,20.79
2022-09-23T17:54:03.988Z,20.80
2022-09-23T17:56:30.978Z,21.01
2022-09-23T17:59:04.437Z,20.73
2022-09-23T18:01:31.343Z,20.78
2022-09-23T18:04:01.655Z,20.44
2022-09-23T18:06:31.730Z,20.88
2022-09-23T18:09:06.938Z,20.98
2022-09-23T18:11:37.431Z,21.18
2022-09-23T18:14:11.834Z,21.07
2022-09-23T18:16:41.370Z,20.72
2022-09-23T18:19:13.470Z,21.21
2022-09-23T18:21:44.647Z,20.88
2022-09-23T18:27:00.411Z,20.63
2022-09-23T18:29:27.540Z,20.83
2022-09-23T18:31:54.902Z,20.67
2022-09-23T18:34:22.253Z,20.84
2022-09-23T18:36:49.295Z,20.91
2022-09-23T18:39:16.881Z,21.13
2022-09-23T18:41:43.831Z,20.56
2022-09-23T18:44:10.915Z,20.78
2022-09-23T18:46:38.097Z,20.47
2022-09-23T18:49:23.765Z,20.35
2022-09-23T18:51:57.983Z,19.87
2022-09-23T18:54:27.912Z,19.72
2022-09-23T18:56:56.555Z,19.72
2022-09-23T18:59:27.830Z,19.60
2022-09-23T19:01:55.756Z,19.97
2022-09-23T19:04:25.269Z,19.89
2022-09-23T19:06:56.325Z,19.45
2022-09-23T19:09:23.577Z,19.75
2022-09-23T19:11:52.416Z,19.97
2022-09-23T19:14:19.968Z,19.93
2022-09-23T19:16:49.035Z,18.95
2022-09-23T19:19:16.395Z,19.18
2022-09-23T19:21:43.528Z,19.45
2022-09-23T19:24:15.549Z,19.71
2022-09-23T19:26:43.671Z,19.50
2022-09-23T19:29:16.510Z,19.51
2022-09-23T19:31:44.194Z,19.53
2022-09-23T19:34:17.793Z,19.60
2022-09-23T19:36:46.891Z,18.70
2022-09-23T19:39:23.605Z,19.80
2022-09-23T19:41:52.459Z,19.10
2022-09-23T19:44:20.121Z,19.14
2022-09-23T19:46:54.890Z,19.31
2022-09-23T19:49:24.030Z,19.15
2022-09-23T19:51:51.003Z,18.59
2022-09-23T19:54:20.838Z,18.72
2022-09-23T19:56:50.072Z,18.01
2022-09-23T19:59:18.997Z,18.79
2022-09-23T20:01:47.870Z,18.42
2022-09-23T20:04:16.162Z,19.04
2022-09-23T20:06:43.304Z,19.22
2022-09-23T20:09:10.421Z,18.90
2022-09-23T20:11:37.413Z,18.97
2022-09-23T20:14:06.453Z,19.03
2022-09-23T20:16:36.760Z,19.08
2022-09-23T20:19:05.528Z,18.11
2022-09-23T20:21:33.942Z,18.03
2022-09-23T20:24:02.275Z,18.29
2022-09-23T20:26:47.592Z,18.78
2022-09-23T20:29:15.196Z,18.50
2022-09-23T20:31:42.418Z,18.70
2022-09-23T20:34:10.716Z,18.60
2022-09-23T20:36:39.652Z,17.96
2022-09-23T20:39:06.773Z,18.20
2022-09-23T20:41:37.596Z,17.98
2022-09-23T20:44:07.956Z,17.88
2022-09-23T20:46:35.856Z,18.19
2022-09-23T20:49:04.922Z,18.03
2022-09-23T20:51:34.886Z,17.70
2022-09-23T20:54:02.275Z,17.79
2022-09-23T20:56:29.899Z,18.08
2022-09-23T20:59:04.960Z,17.86
2022-09-23T21:01:36.876Z,18.32
2022-09-23T21:04:06.049Z,17.15
2022-09-23T21:06:36.643Z,16.70
2022-09-23T21:09:05.700Z,17.88
2022-09-23T21:11:32.571Z,18.08
2022-09-23T21:14:01.092Z,18.04
2022-09-23T21:16:28.339Z,17.87
2022-09-23T21:18:55.256Z,17.50
2022-09-23T21:21:22.676Z,17.65
2022-09-23T21:23:51.099Z,16.77
2022-09-23T21:26:26.165Z,16.65
2022-09-23T21:28:59.864Z,17.34
2022-09-23T21:31:33.689Z,17.96
2022-09-23T21:34:06.965Z,17.05
2022-09-23T21:36:38.234Z,16.49
2022-09-23T21:39:06.948Z,16.57
2022-09-23T21:41:34.492Z,17.11
2022-09-23T21:44:04.705Z,17.42
2022-09-23T21:46:35.150Z,17.39
2022-09-23T21:49:03.679Z,17.50
2022-09-23T21:51:41.052Z,17.40
2022-09-23T21:54:14.224Z,16.45
2022-09-23T21:56:42.238Z,17.16
2022-09-23T21:59:09.616Z,17.43
2022-09-23T22:01:44.270Z,17.05
2022-09-23T22:04:17.788Z,16.17
2022-09-23T22:06:45.925Z,16.18
2022-09-23T22:09:18.881Z,16.57
2022-09-23T22:12:05.399Z,16.42
2022-09-23T22:14:32.382Z,16.38
2022-09-23T22:17:02.826Z,17.02
2022-09-23T22:19:40.218Z,16.92
2022-09-23T22:22:14.737Z,16.46
2022-09-23T22:24:43.399Z,16.96
2022-09-23T22:27:12.295Z,16.63
2022-09-23T22:29:58.227Z,17.23
2022-09-23T22:32:40.754Z,17.17
2022-09-23T22:35:11.372Z,17.07
2022-09-23T22:37:39.362Z,17.39
2022-09-23T22:40:10.049Z,17.57
2022-09-23T22:42:37.531Z,17.54
2022-09-23T22:45:05.764Z,17.35
2022-09-23T22:47:38.074Z,17.76
2022-09-23T22:50:08.039Z,17.32
2022-09-23T22:52:35.223Z,17.48
2022-09-23T22:55:03.485Z,17.64
2022-09-23T22:57:31.394Z,17.42
2022-09-23T22:59:58.384Z,17.28
2022-09-23T23:02:26.049Z,17.21
2022-09-23T23:04:53.355Z,17.25
2022-09-23T23:07:21.328Z,17.38
2022-09-23T23:09:52.454Z,17.66
2022-09-23T23:12:20.797Z,17.71
2022-09-23T23:14:49.105Z,17.84
2022-09-23T23:17:17.106Z,17.89
2022-09-23T23:19:44.179Z,17.78
2022-09-23T23:22:11.209Z,17.82
2022-09-23T23:24:38.167Z,17.72
2022-09-23T23:27:05.432Z,17.60
2022-09-23T23:29:32.323Z,17.54
2022-09-23T23:31:59.585Z,17.57
2022-09-23T23:34:26.529Z,17.39
2022-09-23T23:36:56.549Z,17.58
2022-09-23T23:39:24.934Z,17.59
2022-09-23T23:41:57.016Z,17.60
2022-09-23T23:44:25.941Z,17.62
2022-09-23T23:46:54.480Z,17.73
2022-09-23T23:49:22.099Z,17.76
2022-09-23T23:51:49.485Z,17.70
2022-09-23T23:54:16.537Z,17.39
2022-09-23T23:56:43.889Z,17.38
2022-09-23T23:59:11.237Z,17.46
